Terminal Aerodrome Forecast
Issued by NWS Cleveland, OH

Home | Current Version | Previous Version | Text Only | Print | Product List | Glossary Off
Versions: 1 2 3 4 5 6 7 8 9 10 11 12 13 14 15 16 17 18 19 20

000
FTUS41 KCLE 202324
TAFMFD
TAF
KMFD 202324Z 2100/2124 09006KT P6SM OVC250
     FM210800 16008KT P6SM OVC200
     FM211500 18014G20KT P6SM OVC120
     FM212200 20011KT P6SM OVC080
      TEMPO 2122/2124 -SHRA OVC045=

USA.gov is the U.S. government's official web portal to all federal, state and local government web resources and services.